createdAt,value
2019-01-13T00:03:30.186Z,7.43
2019-01-13T00:09:16.754Z,6.73
2019-01-13T00:15:02.610Z,13.73
2019-01-13T00:18:04.038Z,8.23
2019-01-13T00:23:49.059Z,6.13
2019-01-13T00:29:33.934Z,5.67
2019-01-13T00:35:20.233Z,7.73
2019-01-13T00:38:21.382Z,6.50
2019-01-13T00:44:07.074Z,4.97
2019-01-13T00:49:52.622Z,7.70
2019-01-13T00:55:38.174Z,11.07
2019-01-13T01:01:24.823Z,7.23
2019-01-13T01:04:26.275Z,8.87
2019-01-13T01:10:11.934Z,12.10
2019-01-13T01:15:58.553Z,8.10
2019-01-13T01:21:43.456Z,10.27
2019-01-13T01:24:44.834Z,10.20
2019-01-13T01:30:33.549Z,9.77
2019-01-13T01:36:17.343Z,8.13
2019-01-13T01:42:03.242Z,7.50
2019-01-13T01:45:04.808Z,10.47
2019-01-13T01:50:49.411Z,6.07
2019-01-13T01:56:35.003Z,5.87
2019-01-13T02:02:20.538Z,8.00
2019-01-13T02:05:22.019Z,10.67
2019-01-13T02:11:07.982Z,9.37
2019-01-13T02:16:53.683Z,7.43
2019-01-13T02:22:39.390Z,7.07
2019-01-13T02:28:19.686Z,10.07
2019-01-13T02:34:00.980Z,7.77
2019-01-13T02:37:02.166Z,7.77
2019-01-13T02:42:48.426Z,11.30
2019-01-13T02:48:34.864Z,7.77
2019-01-13T02:54:20.477Z,5.50
2019-01-13T03:00:06.544Z,8.17
2019-01-13T03:03:08.038Z,13.53
2019-01-13T03:08:53.850Z,11.13
2019-01-13T03:14:39.004Z,10.50
2019-01-13T03:20:24.663Z,8.73
2019-01-13T03:26:10.272Z,12.13
2019-01-13T03:31:55.089Z,9.03
2019-01-13T03:37:39.724Z,7.93
2019-01-13T03:40:41.140Z,7.00
2019-01-13T03:46:26.416Z,8.80
2019-01-13T03:52:12.766Z,14.00
2019-01-13T03:57:58.585Z,11.87
2019-01-13T04:03:43.227Z,8.20
2019-01-13T04:09:28.831Z,9.33
2019-01-13T04:12:29.953Z,8.53
2019-01-13T04:18:16.295Z,8.87
2019-01-13T04:24:02.722Z,7.20
2019-01-13T04:29:49.310Z,6.03
2019-01-13T04:32:50.453Z,7.13
2019-01-13T04:38:36.363Z,5.37
2019-01-13T04:44:23.958Z,5.53
2019-01-13T04:50:10.466Z,6.97
2019-01-13T04:53:12.229Z,8.17
2019-01-13T04:56:14.401Z,6.70
2019-01-13T04:59:15.285Z,6.87
2019-01-13T05:05:00.262Z,9.33
2019-01-13T05:10:45.446Z,6.07
2019-01-13T05:13:46.757Z,7.23
2019-01-13T05:19:32.658Z,6.03
2019-01-13T05:25:18.130Z,7.10
2019-01-13T05:31:03.170Z,6.43
2019-01-13T05:34:04.526Z,4.03
2019-01-13T05:39:51.011Z,5.77
2019-01-13T05:45:37.656Z,6.40
2019-01-13T05:51:23.125Z,7.77
2019-01-13T05:54:24.447Z,10.40
2019-01-13T06:00:11.150Z,12.07
2019-01-13T06:05:56.810Z,11.07
2019-01-13T06:11:43.164Z,5.53
2019-01-13T06:14:44.442Z,7.03
2019-01-13T06:20:30.102Z,12.47
2019-01-13T06:26:15.711Z,8.60
2019-01-13T06:32:00.213Z,7.33
2019-01-13T06:35:01.370Z,9.73
2019-01-13T06:40:47.122Z,15.90
2019-01-13T06:43:48.746Z,10.83
2019-01-13T06:46:49.856Z,8.67
2019-01-13T06:52:35.214Z,49.93
2019-01-13T06:55:36.407Z,10.13
2019-01-13T07:01:21.342Z,6.27
2019-01-13T07:07:06.594Z,7.83
2019-01-13T07:12:52.933Z,8.53
2019-01-13T07:15:54.066Z,8.63
2019-01-13T07:21:39.199Z,8.23
2019-01-13T07:27:25.676Z,6.77
2019-01-13T07:33:12.255Z,9.43
2019-01-13T07:36:13.482Z,6.77
2019-01-13T07:41:59.123Z,4.77
2019-01-13T07:47:43.726Z,3.73
2019-01-13T07:53:30.076Z,6.43
2019-01-13T07:56:31.361Z,4.50
2019-01-13T08:02:17.998Z,3.80
2019-01-13T08:08:04.178Z,4.80
2019-01-13T08:13:50.326Z,4.80
2019-01-13T08:16:51.575Z,4.03
2019-01-13T08:22:37.900Z,5.33
2019-01-13T08:28:18.428Z,2.90
2019-01-13T08:31:20.035Z,2.90
2019-01-13T08:34:21.550Z,3.10
2019-01-13T08:40:07.199Z,3.33
2019-01-13T08:43:08.758Z,2.93
2019-01-13T08:48:55.012Z,4.10
2019-01-13T08:54:40.826Z,3.17
2019-01-13T09:00:25.701Z,2.97
2019-01-13T09:06:11.547Z,2.67
2019-01-13T09:11:57.451Z,2.60
2019-01-13T09:17:42.862Z,2.27
2019-01-13T09:20:44.046Z,2.33
2019-01-13T09:26:29.761Z,2.60
2019-01-13T09:29:30.973Z,2.03
2019-01-13T09:32:31.720Z,1.93
2019-01-13T09:38:17.457Z,1.67
2019-01-13T09:41:19.639Z,1.40
2019-01-13T09:44:21.158Z,1.50
2019-01-13T09:47:21.914Z,1.87
2019-01-13T09:53:07.434Z,1.60
2019-01-13T09:58:52.993Z,1.63
2019-01-13T10:01:54.573Z,3.97
2019-01-13T10:04:55.224Z,4.20
2019-01-13T10:10:39.944Z,2.50
2019-01-13T10:16:25.602Z,4.30
2019-01-13T10:19:27.138Z,6.23
2019-01-13T10:25:13.217Z,2.00
2019-01-13T10:31:03.180Z,2.53
2019-01-13T10:34:02.556Z,1.50
2019-01-13T10:39:48.026Z,1.97
2019-01-13T10:45:33.788Z,1.87
2019-01-13T10:51:19.173Z,2.27
2019-01-13T10:57:04.960Z,1.40
2019-01-13T11:00:06.244Z,1.37
2019-01-13T11:06:12.954Z,0.90
2019-01-13T11:11:58.599Z,0.90
2019-01-13T11:14:59.279Z,0.70
2019-01-13T11:20:45.805Z,0.80
2019-01-13T11:26:30.707Z,1.30
2019-01-13T11:32:17.370Z,0.90
2019-01-13T11:35:18.667Z,1.57
2019-01-13T11:38:20.834Z,0.97
2019-01-13T11:41:22.477Z,1.00
2019-01-13T11:47:09.098Z,0.80
2019-01-13T11:52:49.729Z,0.90
2019-01-13T11:55:51.081Z,0.70
2019-01-13T12:01:36.767Z,0.90
2019-01-13T12:07:23.123Z,1.07
2019-01-13T12:13:08.013Z,0.80
2019-01-13T12:16:09.149Z,1.60
2019-01-13T12:21:56.021Z,3.90
2019-01-13T12:27:42.433Z,0.87
2019-01-13T12:33:27.184Z,1.33
2019-01-13T12:36:28.782Z,0.73
2019-01-13T12:42:14.321Z,0.90
2019-01-13T12:47:59.998Z,0.80
2019-01-13T12:53:46.707Z,0.97
2019-01-13T12:56:47.287Z,1.17
2019-01-13T13:02:32.983Z,1.10
2019-01-13T13:08:19.011Z,0.83
2019-01-13T13:14:04.657Z,1.27
2019-01-13T13:17:05.101Z,1.67
2019-01-13T13:22:51.799Z,0.93
2019-01-13T13:28:38.378Z,1.50
2019-01-13T13:34:24.742Z,0.80
2019-01-13T13:37:26.031Z,1.27
2019-01-13T13:43:11.678Z,0.90
2019-01-13T13:48:58.375Z,0.67
2019-01-13T13:54:39.760Z,0.90
2019-01-13T13:57:40.239Z,0.93
2019-01-13T14:03:25.991Z,1.10
2019-01-13T14:09:12.058Z,0.80
2019-01-13T14:14:52.704Z,0.60
2019-01-13T14:20:37.508Z,0.70
2019-01-13T14:23:38.077Z,0.57
2019-01-13T14:29:23.635Z,1.50
2019-01-13T14:35:09.487Z,0.70
2019-01-13T14:40:54.356Z,0.60
2019-01-13T14:43:55.663Z,0.70
2019-01-13T14:49:41.546Z,0.77
2019-01-13T14:55:27.926Z,1.13
2019-01-13T15:01:13.590Z,0.80
2019-01-13T15:06:58.181Z,1.40
2019-01-13T15:12:49.686Z,0.80
2019-01-13T15:18:36.042Z,0.67
2019-01-13T15:21:38.435Z,1.03
2019-01-13T15:27:24.357Z,1.37
2019-01-13T15:33:09.562Z,1.83
2019-01-13T15:38:54.866Z,1.37
2019-01-13T15:44:41.417Z,0.80
2019-01-13T15:50:28.084Z,1.90
2019-01-13T15:56:13.534Z,1.90
2019-01-13T15:59:14.287Z,2.97
2019-01-13T16:04:59.899Z,4.83
2019-01-13T16:10:45.640Z,5.30
2019-01-13T16:16:31.469Z,4.03
2019-01-13T16:22:17.814Z,5.10
2019-01-13T16:25:18.280Z,4.47
2019-01-13T16:31:03.706Z,5.30
2019-01-13T16:36:50.030Z,7.17
2019-01-13T16:42:35.711Z,7.70
2019-01-13T16:45:37.003Z,5.53
2019-01-13T16:51:22.688Z,3.90
2019-01-13T16:57:08.189Z,4.00
2019-01-13T17:02:53.765Z,4.30
2019-01-13T17:05:55.028Z,2.80
2019-01-13T17:11:41.272Z,2.47
2019-01-13T17:17:25.839Z,1.33
2019-01-13T17:23:17.146Z,3.20
2019-01-13T17:26:18.186Z,6.60
2019-01-13T17:32:04.667Z,5.60
2019-01-13T17:37:51.307Z,5.00
2019-01-13T17:43:36.159Z,6.53
2019-01-13T17:46:36.666Z,4.87
2019-01-13T17:52:22.178Z,4.73
2019-01-13T17:58:08.200Z,9.73
2019-01-13T18:03:53.657Z,11.83
2019-01-13T18:06:54.774Z,10.63
2019-01-13T18:12:39.623Z,11.57
2019-01-13T18:18:25.978Z,9.03
2019-01-13T18:24:11.438Z,7.53
2019-01-13T18:27:12.984Z,7.97
2019-01-13T18:32:58.955Z,7.77
2019-01-13T18:38:44.592Z,6.13
2019-01-13T18:44:29.991Z,5.83
2019-01-13T18:47:31.552Z,8.43
2019-01-13T18:53:18.100Z,7.37
2019-01-13T18:59:04.201Z,7.17
2019-01-13T19:02:05.557Z,8.73
2019-01-13T19:05:06.289Z,9.33
2019-01-13T19:08:07.315Z,3.80
2019-01-13T19:13:53.499Z,9.50
2019-01-13T19:19:39.242Z,5.67
2019-01-13T19:25:25.538Z,8.70
2019-01-13T19:28:27.019Z,7.33
2019-01-13T19:34:12.902Z,8.30
2019-01-13T19:39:58.664Z,7.83
2019-01-13T19:45:44.992Z,14.17
2019-01-13T19:48:46.075Z,14.13
2019-01-13T19:51:48.547Z,13.60
2019-01-13T19:54:49.265Z,9.83
2019-01-13T20:00:34.071Z,11.30
2019-01-13T20:03:35.397Z,6.77
2019-01-13T20:09:21.491Z,10.00
2019-01-13T20:15:07.063Z,7.20
2019-01-13T20:20:53.407Z,14.77
2019-01-13T20:26:39.554Z,10.07
2019-01-13T20:29:41.074Z,11.43
2019-01-13T20:35:26.506Z,9.03
2019-01-13T20:41:11.491Z,12.83
2019-01-13T20:46:57.038Z,10.60
2019-01-13T20:52:42.721Z,10.13
2019-01-13T20:55:44.380Z,11.43
2019-01-13T21:01:30.651Z,12.57
2019-01-13T21:07:16.200Z,7.87
2019-01-13T21:13:01.878Z,11.60
2019-01-13T21:18:48.223Z,15.40
2019-01-13T21:21:50.394Z,8.50
2019-01-13T21:24:52.103Z,12.93
2019-01-13T21:27:53.469Z,7.00
2019-01-13T21:33:39.164Z,8.83
2019-01-13T21:39:25.863Z,8.30
2019-01-13T21:45:10.766Z,9.93
2019-01-13T21:50:56.240Z,8.23
2019-01-13T21:56:42.018Z,9.20
2019-01-13T21:59:43.306Z,9.53
2019-01-13T22:02:44.159Z,13.10
2019-01-13T22:05:45.467Z,9.70
2019-01-13T22:11:30.508Z,10.40
2019-01-13T22:17:15.041Z,9.90
2019-01-13T22:20:16.096Z,10.57
2019-01-13T22:23:17.226Z,15.73
2019-01-13T22:26:18.587Z,17.27
2019-01-13T22:32:03.159Z,8.13
2019-01-13T22:37:55.662Z,13.40
2019-01-13T22:43:36.858Z,11.17
2019-01-13T22:46:38.511Z,6.97
2019-01-13T22:52:24.643Z,11.70
2019-01-13T22:58:11.195Z,15.77
2019-01-13T23:03:56.542Z,9.37
2019-01-13T23:06:57.101Z,13.93
2019-01-13T23:15:49.369Z,8.43
2019-01-13T23:18:50.742Z,12.17
2019-01-13T23:24:36.400Z,10.80
2019-01-13T23:27:37.827Z,10.47
2019-01-13T23:33:24.129Z,8.60
2019-01-13T23:39:10.439Z,5.60
2019-01-13T23:44:55.971Z,7.60
2019-01-13T23:47:57.587Z,7.60
2019-01-13T23:53:42.442Z,7.00
2019-01-13T23:59:27.299Z,8.20
